Time;durP1;ratioP1;P1;durP2;ratioP2;P2;SDS_P1;SDS_P2;PMS_P1;PMS_P2;Temp;Humidity;BMP_temperature;BMP_pressure;BME280_temperature;BME280_humidity;BME280_pressure;Samples;Min_cycle;Max_cycle;Signal;HPM_P1;HPM_P2
2023/03/16 00:00:55;;;;;;;;;;;;;;;5.36;58.74;97514.16;5013771;28;19922;-74
2023/03/16 00:03:20;;;;;;;;;;;;;;;5.28;59.26;97515.19;4998865;28;20606;-73
2023/03/16 00:05:46;;;;;;;;;;;;;;;5.31;58.77;97519.13;4984611;28;19912;-74
2023/03/16 00:08:12;;;;;;;;;;;;;;;5.02;59.99;97514.22;5017590;28;20225;-73
2023/03/16 00:10:37;;;;;;;;;;;;;;;4.88;60.13;97510.84;5016820;28;19917;-73
2023/03/16 00:13:02;;;;;;;;;;;;;;;4.86;59.77;97509.44;5001207;28;20474;-73
2023/03/16 00:15:28;;;;;;;;;;;;;;;4.83;59.98;97515.81;4999200;28;19956;-74
2023/03/16 00:17:53;;;;;;;;;;;;;;;4.77;61.00;97514.03;5016900;28;19913;-75
2023/03/16 00:20:19;;;;;;;;;;;;;;;4.76;59.88;97516.78;5001574;28;20109;-74
2023/03/16 00:22:44;;;;;;;;;;;;;;;4.75;60.07;97515.22;4996171;28;19925;-74
2023/03/16 00:25:10;;;;;;;;;;;;;;;4.74;59.90;97511.03;5017626;28;19959;-73
2023/03/16 00:27:36;;;;;;;;;;;;;;;4.77;60.01;97514.03;5001299;28;19940;-74
2023/03/16 00:30:02;;;;;;;;;;;;;;;4.74;60.04;97519.56;5017149;28;19920;-74
2023/03/16 00:32:28;;;;;;;;;;;;;;;4.82;59.48;97526.34;5014055;28;19913;-75
2023/03/16 00:34:53;;;;;;;;;;;;;;;4.78;59.33;97525.94;5011201;28;19921;-74
2023/03/16 00:37:19;;;;;;;;;;;;;;;4.79;59.71;97517.19;4999505;28;20260;-73
2023/03/16 00:39:48;;;;;;;;;;;;;;;4.76;60.32;97511.63;5019421;28;19956;-74
2023/03/16 00:42:14;;;;;;;;;;;;;;;4.65;60.22;97515.59;5020096;28;20133;-75
2023/03/16 00:44:40;;;;;;;;;;;;;;;4.61;60.76;97515.22;5024071;28;19975;-74
2023/03/16 00:47:06;;;;;;;;;;;;;;;4.58;61.62;97510.44;5024603;28;19913;-75
2023/03/16 00:49:35;;;;;;;;;;;;;;;4.58;61.60;97509.66;5041464;28;19912;-73
2023/03/16 00:52:00;;;;;;;;;;;;;;;4.59;61.75;97508.66;5027984;28;20372;-75
2023/03/16 00:54:26;;;;;;;;;;;;;;;4.61;61.35;97514.41;5030948;28;19974;-74
2023/03/16 00:56:51;;;;;;;;;;;;;;;4.64;61.55;97504.50;5021750;28;19917;-74
2023/03/16 00:59:18;;;;;;;;;;;;;;;4.64;60.78;97504.50;5025162;28;20372;-73
2023/03/16 01:01:45;;;;;;;;;;;;;;;4.65;60.68;97500.13;5023555;28;19966;-73
2023/03/16 01:04:11;;;;;;;;;;;;;;;4.68;60.57;97490.22;4995480;28;20012;-74
2023/03/16 01:06:36;;;;;;;;;;;;;;;4.66;60.31;97486.22;5007076;28;20391;-73
2023/03/16 01:09:04;;;;;;;;;;;;;;;4.65;60.65;97479.50;5030879;28;20385;-74
2023/03/16 01:11:32;;;;;;;;;;;;;;;4.69;60.13;97486.66;5011921;28;20012;-74
2023/03/16 01:13:58;;;;;;;;;;;;;;;4.69;59.98;97483.25;5036382;28;20007;-74
2023/03/16 01:16:23;;;;;;;;;;;;;;;4.63;60.76;97487.44;5010474;28;20016;-73
2023/03/16 01:18:48;;;;;;;;;;;;;;;4.70;61.02;97495.19;5021305;28;19920;-74
2023/03/16 01:21:14;;;;;;;;;;;;;;;4.69;60.83;97491.00;5038943;28;19913;-73
2023/03/16 01:23:39;;;;;;;;;;;;;;;4.73;60.87;97494.78;5016722;28;19948;-73
2023/03/16 01:26:06;;;;;;;;;;;;;;;4.79;61.69;97490.59;5004828;28;19913;-73
2023/03/16 01:28:33;;;;;;;;;;;;;;;4.82;61.12;97495.38;5035223;28;20260;-73
2023/03/16 01:31:05;;;;;;;;;;;;;;;4.79;60.77;97490.59;5029306;28;20308;-73
2023/03/16 01:33:31;;;;;;;;;;;;;;;4.79;61.08;97490.59;5005783;28;19912;-74
2023/03/16 01:35:57;;;;;;;;;;;;;;;4.80;61.38;97487.06;5027836;28;19962;-73
2023/03/16 01:38:23;;;;;;;;;;;;;;;4.80;61.23;97485.25;4997552;28;19913;-73
2023/03/16 01:40:50;;;;;;;;;;;;;;;4.81;60.57;97475.72;5032307;28;19920;-74
2023/03/16 01:43:16;;;;;;;;;;;;;;;4.76;60.19;97476.31;5008069;28;20002;-75
2023/03/16 01:46:01;;;;;;;;;;;;;;;4.77;60.13;97479.72;5035865;28;19952;-75
2023/03/16 01:48:26;;;;;;;;;;;;;;;4.70;60.15;97477.13;5031670;28;19951;-73
2023/03/16 01:50:52;;;;;;;;;;;;;;;4.71;60.23;97463.22;5018936;28;20377;-73
2023/03/16 01:53:17;;;;;;;;;;;;;;;4.68;61.30;97466.22;5029564;28;19966;-75
2023/03/16 01:55:42;;;;;;;;;;;;;;;4.76;61.35;97467.78;5013421;28;19923;-73
2023/03/16 01:58:08;;;;;;;;;;;;;;;4.76;61.77;97455.66;5006087;28;19921;-74
2023/03/16 02:00:33;;;;;;;;;;;;;;;4.82;61.59;97454.09;4993905;28;20467;-76
2023/03/16 02:02:59;;;;;;;;;;;;;;;4.86;61.44;97450.91;5044473;22;19917;-76
2023/03/16 02:05:43;;;;;;;;;;;;;;;4.87;61.29;97446.56;4986927;28;19922;-75
2023/03/16 02:08:08;;;;;;;;;;;;;;;4.88;62.07;97448.13;4995262;28;19924;-74
2023/03/16 02:10:34;;;;;;;;;;;;;;;4.89;61.64;97454.88;4974881;28;19925;-73
2023/03/16 02:12:59;;;;;;;;;;;;;;;4.91;62.57;97447.72;5015960;28;20323;-74
2023/03/16 02:15:26;;;;;;;;;;;;;;;4.88;61.89;97440.38;5004869;28;19913;-74
2023/03/16 02:17:51;;;;;;;;;;;;;;;4.90;62.16;97435.03;4988813;28;19917;-74
2023/03/16 02:20:21;;;;;;;;;;;;;;;4.92;61.63;97431.25;4966850;28;19921;-74
2023/03/16 02:22:48;;;;;;;;;;;;;;;4.91;62.04;97440.00;5009202;28;19920;-75
2023/03/16 02:25:14;;;;;;;;;;;;;;;4.92;61.57;97430.44;5013094;28;19921;-74
2023/03/16 02:27:42;;;;;;;;;;;;;;;4.95;61.90;97417.97;5004781;28;19917;-74
2023/03/16 02:30:14;;;;;;;;;;;;;;;5.00;61.46;97422.50;4996462;28;19968;-74
2023/03/16 02:32:39;;;;;;;;;;;;;;;5.03;61.78;97422.88;4989737;28;20312;-74
2023/03/16 02:35:05;;;;;;;;;;;;;;;4.93;62.05;97412.19;4969511;28;20545;-74
2023/03/16 02:37:32;;;;;;;;;;;;;;;4.98;61.94;97406.44;5007443;28;19964;-75
2023/03/16 02:39:58;;;;;;;;;;;;;;;5.00;62.11;97407.84;4977276;28;19932;-74
2023/03/16 02:42:23;;;;;;;;;;;;;;;4.97;62.03;97403.06;4982688;28;19917;-74
2023/03/16 02:44:49;;;;;;;;;;;;;;;5.00;62.51;97399.28;5013879;28;19948;-75
2023/03/16 02:47:35;;;;;;;;;;;;;;;5.03;62.64;97394.50;4972587;28;19944;-75
2023/03/16 02:50:03;;;;;;;;;;;;;;;5.05;62.19;97392.53;4998510;28;20230;-75
2023/03/16 02:52:28;;;;;;;;;;;;;;;5.13;61.89;97377.81;4988538;28;20305;-74
2023/03/16 02:54:54;;;;;;;;;;;;;;;5.18;61.40;97375.41;5000785;28;19960;-75
2023/03/16 02:57:19;;;;;;;;;;;;;;;5.31;62.06;97375.34;4974570;28;19921;-75
2023/03/16 02:59:45;;;;;;;;;;;;;;;5.30;61.60;97373.78;5015762;28;19960;-74
2023/03/16 03:02:10;;;;;;;;;;;;;;;5.24;61.70;97384.91;5006732;28;19913;-73
2023/03/16 03:04:35;;;;;;;;;;;;;;;5.31;61.59;97387.47;4982471;28;19918;-74
2023/03/16 03:07:03;;;;;;;;;;;;;;;5.25;61.01;97371.00;4956079;28;20013;-76
2023/03/16 03:09:31;;;;;;;;;;;;;;;5.29;61.32;97377.34;4979892;28;19925;-75
2023/03/16 03:11:56;;;;;;;;;;;;;;;5.31;61.85;97377.13;4988570;28;19918;-74
2023/03/16 03:14:21;;;;;;;;;;;;;;;5.25;61.84;97376.19;4958603;28;19924;-74
2023/03/16 03:16:47;;;;;;;;;;;;;;;5.24;61.15;97366.84;4984859;28;19961;-75
2023/03/16 03:19:12;;;;;;;;;;;;;;;5.18;62.08;97375.41;4988273;28;19920;-74
2023/03/16 03:21:39;;;;;;;;;;;;;;;5.29;61.39;97372.16;4998367;28;19925;-74
2023/03/16 03:24:04;;;;;;;;;;;;;;;5.31;60.84;97372.75;4997785;28;20008;-75
2023/03/16 03:26:30;;;;;;;;;;;;;;;5.35;60.73;97368.78;4999593;28;20025;-74
2023/03/16 03:28:55;;;;;;;;;;;;;;;5.31;60.42;97370.19;4977911;28;19924;-74
2023/03/16 03:31:21;;;;;;;;;;;;;;;5.33;60.61;97357.06;4994650;28;19922;-74
2023/03/16 03:33:46;;;;;;;;;;;;;;;5.28;60.35;97367.22;4998775;28;19919;-73
2023/03/16 03:36:12;;;;;;;;;;;;;;;5.26;60.67;97357.13;4997427;28;19917;-75
2023/03/16 03:38:37;;;;;;;;;;;;;;;5.23;60.55;97362.69;4977149;28;20012;-74
2023/03/16 03:41:02;;;;;;;;;;;;;;;5.28;60.58;97359.47;4999973;28;19916;-74
2023/03/16 03:43:28;;;;;;;;;;;;;;;5.26;61.20;97367.44;4976091;28;19917;-74
2023/03/16 03:45:57;;;;;;;;;;;;;;;5.24;60.17;97364.25;5005888;28;19910;-74
2023/03/16 03:48:22;;;;;;;;;;;;;;;5.18;60.17;97355.53;4991871;28;20410;-73
2023/03/16 03:50:47;;;;;;;;;;;;;;;5.23;60.44;97357.53;5000990;28;19918;-74
2023/03/16 03:53:13;;;;;;;;;;;;;;;5.17;61.26;97356.53;4985201;28;19921;-74
2023/03/16 03:55:38;;;;;;;;;;;;;;;5.18;60.10;97354.75;4999723;28;20377;-74
2023/03/16 03:58:03;;;;;;;;;;;;;;;5.20;60.39;97350.19;4965026;28;20006;-74
2023/03/16 04:00:29;;;;;;;;;;;;;;;5.24;60.18;97353.94;5007204;28;19920;-74
2023/03/16 04:02:55;;;;;;;;;;;;;;;5.21;60.76;97362.09;5007400;28;20364;-74
2023/03/16 04:05:21;;;;;;;;;;;;;;;5.22;60.35;97358.50;4985063;28;19921;-74
2023/03/16 04:07:47;;;;;;;;;;;;;;;5.26;59.68;97359.69;4983453;28;19921;-74
2023/03/16 04:10:12;;;;;;;;;;;;;;;5.25;59.42;97351.16;5012351;28;19918;-74
2023/03/16 04:12:37;;;;;;;;;;;;;;;5.38;59.68;97347.72;4993550;28;19918;-74
2023/03/16 04:15:03;;;;;;;;;;;;;;;5.38;59.03;97355.47;5003711;28;19921;-74
2023/03/16 04:17:28;;;;;;;;;;;;;;;5.39;59.72;97351.09;5002380;28;20377;-74
2023/03/16 04:19:53;;;;;;;;;;;;;;;5.45;59.61;97355.44;5001110;28;19913;-74
2023/03/16 04:22:18;;;;;;;;;;;;;;;5.40;59.01;97350.88;5002748;28;19913;-74
2023/03/16 04:24:44;;;;;;;;;;;;;;;5.41;59.67;97349.09;4997418;28;19921;-74
2023/03/16 04:27:10;;;;;;;;;;;;;;;5.50;59.39;97352.22;5000016;28;19979;-74
2023/03/16 04:29:37;;;;;;;;;;;;;;;5.46;59.44;97349.25;4971583;28;20462;-75
2023/03/16 04:32:03;;;;;;;;;;;;;;;5.57;59.57;97348.63;4992309;28;19914;-74
2023/03/16 04:34:28;;;;;;;;;;;;;;;5.55;59.97;97339.47;5001888;28;20392;-74
2023/03/16 04:36:53;;;;;;;;;;;;;;;5.52;59.53;97339.88;5002705;28;19914;-74
2023/03/16 04:39:21;;;;;;;;;;;;;;;5.59;59.91;97335.50;5001003;28;19914;-74
2023/03/16 04:41:47;;;;;;;;;;;;;;;5.51;60.14;97328.00;5004436;28;19922;-75
2023/03/16 04:44:12;;;;;;;;;;;;;;;5.56;60.55;97331.53;5004725;28;19944;-75
2023/03/16 04:46:38;;;;;;;;;;;;;;;5.63;59.41;97321.94;4981482;28;19924;-74
2023/03/16 04:49:03;;;;;;;;;;;;;;;5.62;59.75;97327.31;4968036;28;19917;-74
2023/03/16 04:51:29;;;;;;;;;;;;;;;5.62;58.73;97322.94;5008398;28;19913;-74
2023/03/16 04:53:54;;;;;;;;;;;;;;;5.77;59.00;97327.03;4997990;28;19917;-74
2023/03/16 04:56:19;;;;;;;;;;;;;;;5.51;60.15;97323.59;5002027;28;20427;-76
2023/03/16 04:58:48;;;;;;;;;;;;;;;5.69;59.46;97316.94;4996167;28;20370;-77
2023/03/16 05:01:14;;;;;;;;;;;;;;;5.79;58.85;97320.66;4963821;28;19917;-76
2023/03/16 05:03:39;;;;;;;;;;;;;;;5.82;58.86;97319.44;5000352;28;20345;-74
2023/03/16 05:06:04;;;;;;;;;;;;;;;5.75;59.18;97319.47;5006161;28;20361;-76
2023/03/16 05:08:30;;;;;;;;;;;;;;;5.74;58.55;97306.75;4977849;28;20308;-75
2023/03/16 05:10:55;;;;;;;;;;;;;;;5.79;58.38;97310.31;5000065;28;19925;-75
2023/03/16 05:13:21;;;;;;;;;;;;;;;5.80;58.74;97306.72;5006627;28;19925;-76
2023/03/16 05:15:46;;;;;;;;;;;;;;;5.89;58.08;97304.66;4991456;28;19914;-74
2023/03/16 05:18:12;;;;;;;;;;;;;;;5.84;58.36;97306.31;4980144;28;19913;-75
2023/03/16 05:20:37;;;;;;;;;;;;;;;5.82;58.59;97304.72;4980903;28;19949;-75
2023/03/16 05:23:02;;;;;;;;;;;;;;;5.80;58.54;97314.47;4997265;28;19944;-75
2023/03/16 05:25:27;;;;;;;;;;;;;;;5.76;58.61;97310.72;5003924;28;20365;-74
2023/03/16 05:27:53;;;;;;;;;;;;;;;5.69;58.96;97310.00;4986813;28;19917;-75
2023/03/16 05:30:18;;;;;;;;;;;;;;;5.75;58.79;97313.53;4989780;28;20274;-75
2023/03/16 05:32:44;;;;;;;;;;;;;;;5.60;59.50;97314.63;4985426;28;19922;-75
2023/03/16 05:35:12;;;;;;;;;;;;;;;5.70;58.83;97310.78;4998225;28;20288;-75
2023/03/16 05:37:38;;;;;;;;;;;;;;;5.72;59.35;97308.78;5009895;28;20254;-75
2023/03/16 05:40:11;;;;;;;;;;;;;;;5.75;59.10;97311.72;4974601;28;19929;-75
2023/03/16 05:42:36;;;;;;;;;;;;;;;5.76;59.29;97313.31;4998841;28;20134;-74
2023/03/16 05:45:02;;;;;;;;;;;;;;;5.77;59.03;97311.53;4980592;28;20048;-75
2023/03/16 05:47:27;;;;;;;;;;;;;;;5.82;58.21;97317.63;4974372;28;19917;-74
2023/03/16 05:49:52;;;;;;;;;;;;;;;5.85;58.65;97318.22;5004227;28;19920;-75
2023/03/16 05:52:17;;;;;;;;;;;;;;;5.84;58.97;97314.84;5006747;28;20003;-75
2023/03/16 05:54:43;;;;;;;;;;;;;;;5.87;58.24;97319.59;4971136;28;19936;-75
2023/03/16 05:57:08;;;;;;;;;;;;;;;5.76;59.29;97323.66;4982749;28;19923;-74
2023/03/16 05:59:33;;;;;;;;;;;;;;;5.81;58.53;97321.22;4997904;28;20543;-74
2023/03/16 06:01:58;;;;;;;;;;;;;;;5.81;58.14;97323.81;4989011;28;19921;-75
2023/03/16 06:04:24;;;;;;;;;;;;;;;5.88;58.26;97318.59;4997898;28;20094;-75
2023/03/16 06:06:49;;;;;;;;;;;;;;;5.79;58.55;97320.66;5017332;28;20643;-75
2023/03/16 06:09:14;;;;;;;;;;;;;;;5.88;58.38;97307.47;5006321;28;19984;-75
2023/03/16 06:11:39;;;;;;;;;;;;;;;5.89;57.89;97319.38;5001933;28;19960;-75
2023/03/16 06:14:05;;;;;;;;;;;;;;;5.88;58.51;97320.38;5006768;28;19928;-75
2023/03/16 06:16:30;;;;;;;;;;;;;;;5.96;58.42;97315.78;4994443;28;19968;-76
2023/03/16 06:18:55;;;;;;;;;;;;;;;6.03;58.38;97315.72;4974576;28;19953;-74
2023/03/16 06:21:21;;;;;;;;;;;;;;;6.07;58.22;97326.44;4964176;28;19959;-75
2023/03/16 06:23:46;;;;;;;;;;;;;;;6.19;57.59;97320.38;4987926;28;20035;-74
2023/03/16 06:26:12;;;;;;;;;;;;;;;6.33;56.50;97317.66;4988865;28;20473;-74
2023/03/16 06:28:37;;;;;;;;;;;;;;;6.29;57.03;97317.31;4996105;28;20296;-74
2023/03/16 06:31:02;;;;;;;;;;;;;;;6.32;56.73;97314.31;4984728;28;19913;-74
2023/03/16 06:33:27;;;;;;;;;;;;;;;6.29;56.28;97314.72;5006539;28;20635;-75
2023/03/16 06:35:53;;;;;;;;;;;;;;;6.19;56.60;97304.84;4995213;28;19956;-77
2023/03/16 06:38:18;;;;;;;;;;;;;;;6.13;56.66;97310.84;4999769;28;19917;-75
2023/03/16 06:40:43;;;;;;;;;;;;;;;6.07;56.64;97306.56;4985662;28;20296;-75
2023/03/16 06:43:09;;;;;;;;;;;;;;;6.09;57.36;97312.31;5005636;28;19944;-76
2023/03/16 06:45:34;;;;;;;;;;;;;;;6.21;57.59;97312.41;4975110;28;19914;-75
2023/03/16 06:47:59;;;;;;;;;;;;;;;6.26;56.95;97319.53;5004778;28;20288;-75
2023/03/16 06:50:25;;;;;;;;;;;;;;;6.35;56.74;97311.25;5002692;28;19914;-75
2023/03/16 06:52:50;;;;;;;;;;;;;;;6.33;57.16;97315.09;5005990;28;19999;-75
2023/03/16 06:55:15;;;;;;;;;;;;;;;6.37;57.59;97306.69;4995719;28;19956;-75
2023/03/16 06:57:41;;;;;;;;;;;;;;;6.45;57.29;97313.38;5008210;28;19960;-75
2023/03/16 07:00:07;;;;;;;;;;;;;;;6.55;56.78;97313.66;4981837;28;20423;-75
2023/03/16 07:02:34;;;;;;;;;;;;;;;6.68;56.93;97305.00;4993841;28;19960;-74
2023/03/16 07:05:00;;;;;;;;;;;;;;;6.77;56.75;97305.50;5004041;28;19917;-75
2023/03/16 07:07:26;;;;;;;;;;;;;;;6.96;56.32;97303.69;4976097;28;19917;-74
2023/03/16 07:09:51;;;;;;;;;;;;;;;7.31;55.20;97301.22;4981596;28;19979;-75
2023/03/16 07:12:17;;;;;;;;;;;;;;;7.64;53.87;97294.81;4997577;28;20264;-75
2023/03/16 07:14:42;;;;;;;;;;;;;;;7.78;54.29;97300.56;4993441;28;19964;-75
2023/03/16 07:17:07;;;;;;;;;;;;;;;7.99;53.82;97294.06;4995175;28;19961;-75
2023/03/16 07:19:32;;;;;;;;;;;;;;;8.32;53.57;97295.31;4996525;28;19917;-76
2023/03/16 07:21:58;;;;;;;;;;;;;;;8.44;52.62;97297.91;4998825;28;19922;-75
2023/03/16 07:24:23;;;;;;;;;;;;;;;8.75;51.88;97293.38;4982885;28;20461;-74
2023/03/16 07:26:48;;;;;;;;;;;;;;;8.96;49.88;97282.38;4987205;28;20285;-75
2023/03/16 07:29:15;;;;;;;;;;;;;;;9.21;49.15;97289.03;4981120;28;20261;-75
2023/03/16 07:31:41;;;;;;;;;;;;;;;9.59;47.85;97289.44;4985402;28;20654;-75
2023/03/16 07:34:06;;;;;;;;;;;;;;;9.85;48.01;97293.22;4975857;28;19921;-76
2023/03/16 07:36:32;;;;;;;;;;;;;;;9.81;48.45;97292.91;4997443;28;19932;-75
2023/03/16 07:38:57;;;;;;;;;;;;;;;9.94;47.65;97297.03;5000164;28;19936;-75
2023/03/16 07:41:23;;;;;;;;;;;;;;;10.15;47.26;97305.91;4995079;28;19913;-74
2023/03/16 07:43:48;;;;;;;;;;;;;;;10.36;45.62;97298.44;4995254;28;20407;-75
2023/03/16 07:46:14;;;;;;;;;;;;;;;10.42;43.82;97300.09;4996098;28;19913;-77
2023/03/16 07:48:41;;;;;;;;;;;;;;;10.51;44.91;97308.28;5000955;28;20431;-74
2023/03/16 07:51:06;;;;;;;;;;;;;;;10.85;44.42;97303.75;4998339;28;20384;-76
2023/03/16 07:53:31;;;;;;;;;;;;;;;11.19;43.76;97314.00;5003837;28;19913;-75
2023/03/16 07:55:57;;;;;;;;;;;;;;;11.48;44.27;97316.41;4991266;28;19914;-75
2023/03/16 07:58:22;;;;;;;;;;;;;;;11.63;42.56;97316.53;5008442;28;20344;-75
2023/03/16 08:00:47;;;;;;;;;;;;;;;11.78;42.26;97316.69;5002032;28;19924;-75
2023/03/16 08:03:12;;;;;;;;;;;;;;;11.79;42.26;97317.47;5012633;28;21147;-76
2023/03/16 08:05:38;;;;;;;;;;;;;;;11.48;42.61;97312.00;5003820;28;20312;-75
2023/03/16 08:08:03;;;;;;;;;;;;;;;11.79;42.86;97320.88;4993639;28;19949;-75
2023/03/16 08:10:28;;;;;;;;;;;;;;;12.09;42.95;97318.78;4971277;28;19991;-75
2023/03/16 08:12:54;;;;;;;;;;;;;;;11.95;42.71;97321.03;5011247;28;19913;-76
2023/03/16 08:15:20;;;;;;;;;;;;;;;12.27;42.25;97318.38;4991199;28;19921;-75
2023/03/16 08:17:46;;;;;;;;;;;;;;;12.36;41.38;97305.66;4977883;28;19917;-76
2023/03/16 08:20:13;;;;;;;;;;;;;;;12.64;42.63;97301.09;4990736;28;19963;-75
2023/03/16 08:22:38;;;;;;;;;;;;;;;12.83;42.82;97299.59;5000429;28;19936;-76
2023/03/16 08:25:05;;;;;;;;;;;;;;;13.34;40.28;97298.22;4978111;28;19914;-75
2023/03/16 08:27:30;;;;;;;;;;;;;;;13.32;39.90;97302.94;5004805;28;19946;-75
2023/03/16 08:29:56;;;;;;;;;;;;;;;13.30;40.32;97297.94;4991618;28;19917;-76
2023/03/16 08:32:21;;;;;;;;;;;;;;;13.01;40.09;97298.38;4997672;28;20304;-76
2023/03/16 08:34:46;;;;;;;;;;;;;;;13.38;41.23;97288.81;5002681;28;20000;-75
2023/03/16 08:37:12;;;;;;;;;;;;;;;13.17;41.81;97283.50;4999859;28;20437;-76
2023/03/16 08:39:42;;;;;;;;;;;;;;;13.14;41.00;97286.63;5002795;28;19918;-76
2023/03/16 08:42:08;;;;;;;;;;;;;;;12.80;41.60;97292.28;4988487;28;19918;-76
2023/03/16 08:44:35;;;;;;;;;;;;;;;12.88;40.77;97304.06;4985089;28;19940;-76
2023/03/16 08:47:00;;;;;;;;;;;;;;;13.06;41.08;97308.06;4980940;28;19968;-77
2023/03/16 08:49:28;;;;;;;;;;;;;;;13.14;41.34;97310.16;4994474;28;19917;-75
2023/03/16 08:51:53;;;;;;;;;;;;;;;13.07;41.13;97309.63;4996337;28;20196;-74
2023/03/16 08:54:18;;;;;;;;;;;;;;;13.46;40.66;97309.22;5004784;28;19918;-77
2023/03/16 08:56:44;;;;;;;;;;;;;;;13.65;40.17;97301.66;5015445;28;19952;-76
2023/03/16 08:59:09;;;;;;;;;;;;;;;13.82;41.88;97298.78;4990340;28;20443;-76
2023/03/16 09:01:34;;;;;;;;;;;;;;;13.93;38.49;97300.38;4970251;28;19920;-78
2023/03/16 09:03:59;;;;;;;;;;;;;;;13.97;37.97;97298.78;4974341;28;19925;-76
2023/03/16 09:06:25;;;;;;;;;;;;;;;13.61;38.94;97304.00;4982178;28;20026;-75
2023/03/16 09:08:50;;;;;;;;;;;;;;;13.53;37.74;97299.28;4993530;28;20009;-76
2023/03/16 09:11:16;;;;;;;;;;;;;;;13.93;37.36;97308.22;4978401;28;19920;-76
2023/03/16 09:13:42;;;;;;;;;;;;;;;14.07;38.22;97299.81;5001133;28;20410;-75
2023/03/16 09:16:08;;;;;;;;;;;;;;;14.15;36.20;97294.03;4989598;28;20028;-76
2023/03/16 09:18:34;;;;;;;;;;;;;;;13.98;37.91;97300.38;4977597;28;19914;-76
2023/03/16 09:21:00;;;;;;;;;;;;;;;13.53;37.07;97295.91;4988742;28;19964;-74
2023/03/16 09:23:26;;;;;;;;;;;;;;;14.05;37.29;97287.78;4995247;28;19914;-77
2023/03/16 09:25:52;;;;;;;;;;;;;;;13.96;38.55;97285.97;4993768;28;20012;-75
2023/03/16 09:28:17;;;;;;;;;;;;;;;14.16;38.76;97288.56;4975152;28;20020;-75
2023/03/16 09:30:43;;;;;;;;;;;;;;;14.11;39.06;97277.31;5001723;28;19929;-75
2023/03/16 09:33:08;;;;;;;;;;;;;;;14.47;39.47;97267.53;4973383;28;20078;-76
2023/03/16 09:35:33;;;;;;;;;;;;;;;14.58;38.50;97273.50;4974131;28;19921;-76
2023/03/16 09:37:59;;;;;;;;;;;;;;;14.90;36.44;97286.25;5004559;28;19967;-74
2023/03/16 09:40:25;;;;;;;;;;;;;;;14.72;37.20;97282.41;4990098;28;19913;-76
2023/03/16 09:42:56;;;;;;;;;;;;;;;14.93;37.67;97280.47;4978971;28;20004;-75
2023/03/16 09:45:22;;;;;;;;;;;;;;;15.28;36.19;97281.34;4998400;28;20380;-75
2023/03/16 09:47:47;;;;;;;;;;;;;;;15.26;37.70;97278.22;4994556;28;20020;-76
2023/03/16 09:50:15;;;;;;;;;;;;;;;15.58;35.86;97278.81;4988104;28;20392;-76
2023/03/16 09:52:43;;;;;;;;;;;;;;;15.34;37.01;97274.25;4977929;28;19918;-75
2023/03/16 10:04:18;;;;;;;;;;;;;;;15.46;36.87;97273.91;4997246;28;19921;-75
2023/03/16 10:06:53;;;;;;;;;;;;;;;15.50;34.10;97277.53;5024334;28;19913;-76
2023/03/16 10:09:25;;;;;;;;;;;;;;;15.54;34.90;97281.97;4982545;28;19936;-75
2023/03/16 10:11:54;;;;;;;;;;;;;;;15.34;34.45;97289.97;5013355;28;19918;-76
2023/03/16 10:14:19;;;;;;;;;;;;;;;15.32;34.56;97279.75;4989218;28;19924;-75
2023/03/16 10:16:51;;;;;;;;;;;;;;;15.19;37.08;97275.09;5008000;28;19913;-76
2023/03/16 10:19:36;;;;;;;;;;;;;;;15.54;35.11;97276.72;4998609;28;20352;-76
2023/03/16 10:22:22;;;;;;;;;;;;;;;15.62;34.35;97275.34;5007511;28;20550;-76
2023/03/16 10:24:47;;;;;;;;;;;;;;;15.71;35.58;97271.09;5004130;28;20138;-76
2023/03/16 10:27:22;;;;;;;;;;;;;;;15.45;35.41;97269.69;4995715;28;19921;-76
2023/03/16 10:29:47;;;;;;;;;;;;;;;15.29;37.28;97269.03;4988059;28;19983;-75
2023/03/16 10:32:17;;;;;;;;;;;;;;;15.55;36.21;97274.88;4988369;28;19921;-75
2023/03/16 10:34:56;;;;;;;;;;;;;;;15.31;34.18;97269.53;5123428;27;20537;-75
2023/03/16 10:37:21;;;;;;;;;;;;;;;15.00;34.55;97268.94;5105462;28;19928;-75
2023/03/16 10:39:48;;;;;;;;;;;;;;;14.97;34.89;97270.25;5093038;27;20139;-75
2023/03/16 10:42:15;;;;;;;;;;;;;;;14.36;34.75;97265.97;5118065;27;19916;-77
2023/03/16 10:44:40;;;;;;;;;;;;;;;14.63;35.96;97263.03;5082724;28;20371;-75
2023/03/16 10:47:12;;;;;;;;;;;;;;;14.69;35.45;97261.97;5115181;27;19919;-77
2023/03/16 10:49:45;;;;;;;;;;;;;;;14.91;35.71;97266.09;5088887;28;19916;-76
2023/03/16 10:52:18;;;;;;;;;;;;;;;15.19;36.21;97267.25;5109693;27;19916;-77
2023/03/16 10:54:57;;;;;;;;;;;;;;;15.19;35.14;97266.47;5090893;28;19920;-76
2023/03/16 10:57:29;;;;;;;;;;;;;;;15.53;35.63;97264.66;5122649;27;19926;-76
2023/03/16 10:59:56;;;;;;;;;;;;;;;15.92;35.16;97255.19;5105585;28;20011;-76
2023/03/16 11:02:30;;;;;;;;;;;;;;;16.13;33.26;97241.88;5129597;27;19920;-77
2023/03/16 11:05:01;;;;;;;;;;;;;;;16.12;34.96;97241.06;5101380;28;19963;-76
2023/03/16 11:07:26;;;;;;;;;;;;;;;16.32;34.01;97236.69;5122873;27;19976;-76
2023/03/16 11:09:52;;;;;;;;;;;;;;;16.87;33.46;97236.31;5084289;28;20383;-75
2023/03/16 11:12:25;;;;;;;;;;;;;;;16.75;32.18;97239.31;5112370;27;19916;-77
2023/03/16 11:14:50;;;;;;;;;;;;;;;17.06;33.38;97246.84;5095966;28;20352;-76
2023/03/16 11:17:17;;;;;;;;;;;;;;;17.35;31.37;97244.81;5087556;28;19951;-76
2023/03/16 11:19:50;;;;;;;;;;;;;;;17.63;30.05;97237.03;5089361;28;19961;-76
2023/03/16 11:22:16;;;;;;;;;;;;;;;17.74;31.13;97235.03;5116836;27;20398;-76
2023/03/16 11:25:00;;;;;;;;;;;;;;;17.86;32.35;97231.94;5089322;28;20009;-76
2023/03/16 11:27:32;;;;;;;;;;;;;;;17.95;30.45;97230.22;5119905;27;19922;-76
2023/03/16 11:30:01;;;;;;;;;;;;;;;18.71;31.66;97227.16;5087663;28;20096;-76
2023/03/16 11:32:28;;;;;;;;;;;;;;;18.96;30.33;97225.13;5101063;27;19922;-76
2023/03/16 11:34:53;;;;;;;;;;;;;;;18.83;28.51;97226.69;5116826;27;19938;-76
2023/03/16 11:37:34;;;;;;;;;;;;;;;19.27;28.87;97218.06;5107022;27;19919;-77
2023/03/16 11:40:15;;;;;;;;;;;;;;;19.51;28.55;97216.22;5090653;28;19923;-76
2023/03/16 11:42:58;;;;;;;;;;;;;;;20.09;27.57;97212.66;5133599;27;19939;-78
2023/03/16 11:45:24;;;;;;;;;;;;;;;20.11;29.08;97215.75;5107517;27;19966;-77
2023/03/16 11:48:09;;;;;;;;;;;;;;;19.00;31.11;97208.38;5119117;27;19967;-75
2023/03/16 11:50:38;;;;;;;;;;;;;;;19.02;30.46;97206.25;5093269;27;19916;-78
2023/03/16 11:53:03;;;;;;;;;;;;;;;18.37;28.61;97191.50;5113130;27;20307;-76
2023/03/16 11:55:32;;;;;;;;;;;;;;;17.59;29.47;97202.59;5094816;28;19915;-77
2023/03/16 11:57:57;;;;;;;;;;;;;;;17.83;32.48;97198.25;5086366;28;19916;-76
2023/03/16 12:00:22;;;;;;;;;;;;;;;17.76;31.41;97201.28;5111935;28;19923;-75
2023/03/16 12:03:03;;;;;;;;;;;;;;;17.58;29.02;97210.78;5099238;28;20397;-77
2023/03/16 12:05:47;;;;;;;;;;;;;;;17.89;29.40;97197.13;5106536;28;19924;-76
2023/03/16 12:08:13;;;;;;;;;;;;;;;18.40;28.66;97193.50;5084504;27;19926;-77
2023/03/16 12:10:42;;;;;;;;;;;;;;;18.86;29.06;97183.91;5111600;28;19920;-76
2023/03/16 12:13:14;;;;;;;;;;;;;;;19.13;28.04;97188.31;5116522;27;19924;-76
2023/03/16 12:15:50;;;;;;;;;;;;;;;19.39;28.28;97195.63;5113471;27;19916;-76
2023/03/16 12:18:15;;;;;;;;;;;;;;;19.67;30.02;97198.13;5080196;27;19938;-76
2023/03/16 12:20:49;;;;;;;;;;;;;;;18.84;28.50;97197.38;5093716;28;20359;-76
2023/03/16 12:23:21;;;;;;;;;;;;;;;18.75;29.83;97193.06;5086866;27;19924;-76
2023/03/16 12:25:48;;;;;;;;;;;;;;;19.03;29.63;97194.59;5101915;27;20366;-76
2023/03/16 12:28:16;;;;;;;;;;;;;;;19.93;30.12;97185.06;5093085;27;20434;-76
2023/03/16 12:30:49;;;;;;;;;;;;;;;19.28;29.53;97177.41;5093774;27;19919;-77
2023/03/16 12:33:21;;;;;;;;;;;;;;;19.13;29.48;97167.19;5104631;27;20010;-76
2023/03/16 12:35:58;;;;;;;;;;;;;;;20.08;27.89;97154.81;5123632;27;20401;-77
2023/03/16 12:38:30;;;;;;;;;;;;;;;20.76;26.78;97150.75;5108287;27;19919;-76
2023/03/16 12:41:10;;;;;;;;;;;;;;;21.06;26.25;97140.31;5100600;27;19916;-76
2023/03/16 12:43:39;;;;;;;;;;;;;;;20.82;25.07;97148.75;5100677;27;19923;-76
2023/03/16 12:46:06;;;;;;;;;;;;;;;20.29;26.73;97141.78;5105825;27;20313;-75
2023/03/16 12:48:45;;;;;;;;;;;;;;;20.17;27.08;97145.06;5107594;27;19915;-77
2023/03/16 12:51:10;;;;;;;;;;;;;;;19.76;28.16;97131.06;5093554;27;20464;-75
2023/03/16 12:53:52;;;;;;;;;;;;;;;19.54;29.78;97129.22;5092434;27;19927;-76
2023/03/16 12:56:18;;;;;;;;;;;;;;;18.78;30.05;97129.19;5113939;27;20335;-76
2023/03/16 12:58:45;;;;;;;;;;;;;;;18.81;30.33;97133.88;5092413;27;19916;-76
2023/03/16 13:01:11;;;;;;;;;;;;;;;18.29;28.78;97128.91;5107347;27;20439;-76